sensor_id;sensor_type;location;lat;lon;timestamp;pressure;altitude;pressure_sealevel;temperature;humidity
48216;BME280;34005;48.844;10.098;2023-04-26T00:02:04;96668.44;;;6.54;78.34
48216;BME280;34005;48.844;10.098;2023-04-26T00:04:33;96671.31;;;6.51;77.74
48216;BME280;34005;48.844;10.098;2023-04-26T00:07:01;96666.59;;;6.46;77.62
48216;BME280;34005;48.844;10.098;2023-04-26T00:09:29;96663.34;;;6.44;77.55
48216;BME280;34005;48.844;10.098;2023-04-26T00:11:57;96662.03;;;6.40;77.63
48216;BME280;34005;48.844;10.098;2023-04-26T00:14:24;96662.34;;;6.37;77.78
48216;BME280;34005;48.844;10.098;2023-04-26T00:16:52;96662.34;;;6.37;77.66
48216;BME280;34005;48.844;10.098;2023-04-26T00:19:19;96663.16;;;6.37;78.08
48216;BME280;34005;48.844;10.098;2023-04-26T00:21:48;96666.53;;;6.38;77.87
48216;BME280;34005;48.844;10.098;2023-04-26T00:24:16;96665.88;;;6.36;77.73
48216;BME280;34005;48.844;10.098;2023-04-26T00:26:44;96662.94;;;6.31;77.53
48216;BME280;34005;48.844;10.098;2023-04-26T00:29:11;96667.59;;;6.27;77.78
48216;BME280;34005;48.844;10.098;2023-04-26T00:31:39;96668.91;;;6.23;77.60
48216;BME280;34005;48.844;10.098;2023-04-26T00:34:06;96668.25;;;6.21;77.49
48216;BME280;34005;48.844;10.098;2023-04-26T00:36:34;96663.34;;;6.18;77.75
48216;BME280;34005;48.844;10.098;2023-04-26T00:39:03;96664.47;;;6.15;77.83
48216;BME280;34005;48.844;10.098;2023-04-26T00:41:31;96669.66;;;6.15;78.27
48216;BME280;34005;48.844;10.098;2023-04-26T00:43:58;96668.69;;;6.16;78.12
48216;BME280;34005;48.844;10.098;2023-04-26T00:46:26;96667.22;;;6.14;77.98
48216;BME280;34005;48.844;10.098;2023-04-26T00:48:54;96671.59;;;6.13;78.38
48216;BME280;34005;48.844;10.098;2023-04-26T00:51:22;96670.78;;;6.13;78.50
48216;BME280;34005;48.844;10.098;2023-04-26T00:53:50;96670.78;;;6.13;78.49
48216;BME280;34005;48.844;10.098;2023-04-26T00:56:19;96675.81;;;6.14;78.37
48216;BME280;34005;48.844;10.098;2023-04-26T00:58:47;96675.81;;;6.14;78.20
48216;BME280;34005;48.844;10.098;2023-04-26T01:01:15;96676.75;;;6.13;78.65
48216;BME280;34005;48.844;10.098;2023-04-26T01:03:43;96677.75;;;6.12;78.11
48216;BME280;34005;48.844;10.098;2023-04-26T01:06:12;96680.34;;;6.12;78.14
48216;BME280;34005;48.844;10.098;2023-04-26T01:08:40;96686.97;;;6.15;78.36
48216;BME280;34005;48.844;10.098;2023-04-26T01:11:07;96678.59;;;6.21;78.64
48216;BME280;34005;48.844;10.098;2023-04-26T01:13:37;96695.16;;;6.28;78.72
48216;BME280;34005;48.844;10.098;2023-04-26T01:16:06;96691.66;;;6.37;79.21
48216;BME280;34005;48.844;10.098;2023-04-26T01:18:34;96683.72;;;6.39;78.51
48216;BME280;34005;48.844;10.098;2023-04-26T01:21:02;96684.69;;;6.38;78.37
48216;BME280;34005;48.844;10.098;2023-04-26T01:23:32;96687.72;;;6.33;78.09
48216;BME280;34005;48.844;10.098;2023-04-26T01:25:59;96691.09;;;6.26;78.59
48216;BME280;34005;48.844;10.098;2023-04-26T01:28:27;96691.09;;;6.26;78.48
48216;BME280;34005;48.844;10.098;2023-04-26T01:30:54;96688.50;;;6.26;79.23
48216;BME280;34005;48.844;10.098;2023-04-26T01:33:22;96684.28;;;6.25;78.82
48216;BME280;34005;48.844;10.098;2023-04-26T01:35:50;96683.63;;;6.23;79.60
48216;BME280;34005;48.844;10.098;2023-04-26T01:38:17;96684.59;;;6.22;79.35
48216;BME280;34005;48.844;10.098;2023-04-26T01:40:46;96684.59;;;6.22;80.24
48216;BME280;34005;48.844;10.098;2023-04-26T01:43:14;96688.97;;;6.21;79.48
48216;BME280;34005;48.844;10.098;2023-04-26T01:45:45;96692.31;;;6.13;79.15
48216;BME280;34005;48.844;10.098;2023-04-26T01:48:13;96687.44;;;6.10;79.12
48216;BME280;34005;48.844;10.098;2023-04-26T01:50:40;96692.63;;;6.10;79.33
48216;BME280;34005;48.844;10.098;2023-04-26T01:53:08;96694.75;;;6.15;80.60
48216;BME280;34005;48.844;10.098;2023-04-26T01:55:35;96698.66;;;6.19;80.51
48216;BME280;34005;48.844;10.098;2023-04-26T01:58:04;96690.97;;;6.09;78.29
48216;BME280;34005;48.844;10.098;2023-04-26T02:00:32;96692.69;;;6.01;78.17
48216;BME280;34005;48.844;10.098;2023-04-26T02:03:00;96685.66;;;5.93;78.39
48216;BME280;34005;48.844;10.098;2023-04-26T02:05:27;96691.44;;;5.87;77.92
48216;BME280;34005;48.844;10.098;2023-04-26T02:07:55;96691.38;;;5.78;78.13
48216;BME280;34005;48.844;10.098;2023-04-26T02:10:22;96688.41;;;5.73;78.31
48216;BME280;34005;48.844;10.098;2023-04-26T02:12:50;96682.72;;;5.70;78.43
48216;BME280;34005;48.844;10.098;2023-04-26T02:15:19;96690.78;;;5.67;78.31
48216;BME280;34005;48.844;10.098;2023-04-26T02:17:47;96696.47;;;5.70;80.03
48216;BME280;34005;48.844;10.098;2023-04-26T02:20:15;96684.56;;;5.77;80.58
48216;BME280;34005;48.844;10.098;2023-04-26T02:22:42;96683.94;;;5.84;80.30
48216;BME280;34005;48.844;10.098;2023-04-26T02:25:10;96686.13;;;5.88;80.03
48216;BME280;34005;48.844;10.098;2023-04-26T02:27:38;96687.03;;;5.97;81.42
48216;BME280;34005;48.844;10.098;2023-04-26T02:30:07;96688.31;;;6.01;80.29
48216;BME280;34005;48.844;10.098;2023-04-26T02:32:36;96683.59;;;5.96;78.07
48216;BME280;34005;48.844;10.098;2023-04-26T02:35:04;96683.31;;;6.00;80.71
48216;BME280;34005;48.844;10.098;2023-04-26T02:37:32;96687.91;;;6.06;81.55
48216;BME280;34005;48.844;10.098;2023-04-26T02:39:59;96690.63;;;6.04;81.02
48216;BME280;34005;48.844;10.098;2023-04-26T02:42:27;96688.03;;;6.04;81.56
48216;BME280;34005;48.844;10.098;2023-04-26T02:44:55;96683.53;;;6.06;82.59
48216;BME280;34005;48.844;10.098;2023-04-26T02:47:22;96685.19;;;6.15;83.75
48216;BME280;34005;48.844;10.098;2023-04-26T02:49:51;96688.78;;;6.23;82.76
48216;BME280;34005;48.844;10.098;2023-04-26T02:52:19;96675.19;;;6.21;80.29
48216;BME280;34005;48.844;10.098;2023-04-26T02:54:47;96667.41;;;6.21;80.67
48216;BME280;34005;48.844;10.098;2023-04-26T02:57:14;96680.06;;;6.24;80.65
48216;BME280;34005;48.844;10.098;2023-04-26T02:59:42;96675.56;;;6.26;81.15
48216;BME280;34005;48.844;10.098;2023-04-26T03:02:09;96686.19;;;6.23;79.55
48216;BME280;34005;48.844;10.098;2023-04-26T03:04:37;96680.69;;;6.17;78.61
48216;BME280;34005;48.844;10.098;2023-04-26T03:07:06;96683.88;;;6.11;79.71
48216;BME280;34005;48.844;10.098;2023-04-26T03:09:34;96685.13;;;6.07;81.10
48216;BME280;34005;48.844;10.098;2023-04-26T03:12:05;96688.38;;;6.09;82.72
48216;BME280;34005;48.844;10.098;2023-04-26T03:14:32;96692.31;;;6.13;83.12
48216;BME280;34005;48.844;10.098;2023-04-26T03:17:00;96696.69;;;6.13;83.46
48216;BME280;34005;48.844;10.098;2023-04-26T03:19:28;96701.19;;;6.11;82.08
48216;BME280;34005;48.844;10.098;2023-04-26T03:21:56;96695.81;;;6.04;81.32
48216;BME280;34005;48.844;10.098;2023-04-26T03:24:25;96701.78;;;6.05;82.85
48216;BME280;34005;48.844;10.098;2023-04-26T03:26:52;96698.09;;;6.07;82.67
48216;BME280;34005;48.844;10.098;2023-04-26T03:29:20;96697.41;;;6.05;81.74
48216;BME280;34005;48.844;10.098;2023-04-26T03:31:48;96688.31;;;6.01;79.84
48216;BME280;34005;48.844;10.098;2023-04-26T03:34:15;96680.56;;;5.83;77.86
48216;BME280;34005;48.844;10.098;2023-04-26T03:36:43;96693.66;;;5.64;77.41
48216;BME280;34005;48.844;10.098;2023-04-26T03:39:10;96692.03;;;5.45;77.28
48216;BME280;34005;48.844;10.098;2023-04-26T03:41:39;96689.16;;;5.30;77.31
48216;BME280;34005;48.844;10.098;2023-04-26T03:44:07;96694.38;;;5.20;77.26
48216;BME280;34005;48.844;10.098;2023-04-26T03:46:35;96689.25;;;5.10;78.03
48216;BME280;34005;48.844;10.098;2023-04-26T03:49:02;96693.09;;;5.06;78.04
48216;BME280;34005;48.844;10.098;2023-04-26T03:51:30;96692.56;;;5.03;78.29
48216;BME280;34005;48.844;10.098;2023-04-26T03:53:57;96697.72;;;5.03;78.11
48216;BME280;34005;48.844;10.098;2023-04-26T03:56:25;96697.06;;;5.01;77.54
48216;BME280;34005;48.844;10.098;2023-04-26T03:58:54;96696.00;;;4.93;77.19
48216;BME280;34005;48.844;10.098;2023-04-26T04:01:22;96705.97;;;4.88;77.06
48216;BME280;34005;48.844;10.098;2023-04-26T04:03:49;96704.63;;;4.84;77.07
48216;BME280;34005;48.844;10.098;2023-04-26T04:06:17;96717.13;;;4.89;78.32
48216;BME280;34005;48.844;10.098;2023-04-26T04:08:45;96719.28;;;4.93;78.24
48216;BME280;34005;48.844;10.098;2023-04-26T04:11:12;96718.72;;;5.00;79.85
48216;BME280;34005;48.844;10.098;2023-04-26T04:13:42;96711.31;;;5.05;79.26
48216;BME280;34005;48.844;10.098;2023-04-26T04:16:11;96712.72;;;4.99;76.90
48216;BME280;34005;48.844;10.098;2023-04-26T04:18:38;96711.81;;;4.90;76.66
48216;BME280;34005;48.844;10.098;2023-04-26T04:21:06;96713.06;;;4.86;78.09
48216;BME280;34005;48.844;10.098;2023-04-26T04:23:33;96722.16;;;4.90;78.62
48216;BME280;34005;48.844;10.098;2023-04-26T04:26:01;96715.78;;;4.85;77.80
48216;BME280;34005;48.844;10.098;2023-04-26T04:28:29;96719.34;;;4.74;76.55
48216;BME280;34005;48.844;10.098;2023-04-26T04:30:57;96721.88;;;4.56;76.38
48216;BME280;34005;48.844;10.098;2023-04-26T04:33:27;96722.47;;;4.40;76.94
48216;BME280;34005;48.844;10.098;2023-04-26T04:35:55;96719.47;;;4.35;77.50
48216;BME280;34005;48.844;10.098;2023-04-26T04:38:24;96724.00;;;4.33;76.89
48216;BME280;34005;48.844;10.098;2023-04-26T04:40:51;96724.94;;;4.32;77.13
48216;BME280;34005;48.844;10.098;2023-04-26T04:43:19;96721.00;;;4.28;76.48
48216;BME280;34005;48.844;10.098;2023-04-26T04:45:46;96722.22;;;4.24;76.44
48216;BME280;34005;48.844;10.098;2023-04-26T04:48:14;96729.28;;;4.22;76.38
48216;BME280;34005;48.844;10.098;2023-04-26T04:50:44;96723.75;;;4.17;76.54
48216;BME280;34005;48.844;10.098;2023-04-26T04:53:11;96726.75;;;4.12;76.38
48216;BME280;34005;48.844;10.098;2023-04-26T04:55:39;96727.41;;;4.04;76.62
48216;BME280;34005;48.844;10.098;2023-04-26T04:58:12;96722.81;;;3.98;77.03
48216;BME280;34005;48.844;10.098;2023-04-26T05:00:40;96730.97;;;4.03;78.51
48216;BME280;34005;48.844;10.098;2023-04-26T05:03:09;96734.34;;;4.13;79.21
48216;BME280;34005;48.844;10.098;2023-04-26T05:05:47;96737.47;;;4.27;82.04
48216;BME280;34005;48.844;10.098;2023-04-26T05:08:15;96741.66;;;4.38;79.71
48216;BME280;34005;48.844;10.098;2023-04-26T05:10:44;96739.19;;;4.36;77.59
48216;BME280;34005;48.844;10.098;2023-04-26T05:13:11;96741.53;;;4.29;77.12
48216;BME280;34005;48.844;10.098;2023-04-26T05:15:39;96737.03;;;4.22;76.86
48216;BME280;34005;48.844;10.098;2023-04-26T05:18:07;96738.00;;;4.21;77.30
48216;BME280;34005;48.844;10.098;2023-04-26T05:20:35;96741.28;;;4.23;77.13
48216;BME280;34005;48.844;10.098;2023-04-26T05:23:04;96749.94;;;4.22;76.58
48216;BME280;34005;48.844;10.098;2023-04-26T05:25:35;96752.69;;;4.20;77.18
48216;BME280;34005;48.844;10.098;2023-04-26T05:28:03;96759.06;;;4.26;78.38
48216;BME280;34005;48.844;10.098;2023-04-26T05:30:33;96761.34;;;4.39;79.47
48216;BME280;34005;48.844;10.098;2023-04-26T05:33:01;96762.16;;;4.49;80.00
48216;BME280;34005;48.844;10.098;2023-04-26T05:35:29;96762.66;;;4.52;79.37
48216;BME280;34005;48.844;10.098;2023-04-26T05:37:57;96764.31;;;4.53;78.23
48216;BME280;34005;48.844;10.098;2023-04-26T05:40:26;96765.94;;;4.54;78.05
48216;BME280;34005;48.844;10.098;2023-04-26T05:42:54;96765.78;;;4.56;78.33
48216;BME280;34005;48.844;10.098;2023-04-26T05:45:27;96767.28;;;4.68;79.78
48216;BME280;34005;48.844;10.098;2023-04-26T05:47:55;96770.50;;;4.80;79.42
48216;BME280;34005;48.844;10.098;2023-04-26T05:50:22;96775.78;;;4.88;79.47
48216;BME280;34005;48.844;10.098;2023-04-26T05:52:50;96780.66;;;4.91;78.01
48216;BME280;34005;48.844;10.098;2023-04-26T05:55:19;96781.06;;;4.97;78.67
48216;BME280;34005;48.844;10.098;2023-04-26T05:57:48;96783.03;;;5.03;78.03
48216;BME280;34005;48.844;10.098;2023-04-26T06:00:16;96783.16;;;5.11;79.24
48216;BME280;34005;48.844;10.098;2023-04-26T06:02:46;96782.41;;;5.28;81.00
48216;BME280;34005;48.844;10.098;2023-04-26T06:05:14;96787.38;;;5.40;79.92
48216;BME280;34005;48.844;10.098;2023-04-26T06:07:42;96781.34;;;5.49;80.45
48216;BME280;34005;48.844;10.098;2023-04-26T06:10:10;96786.31;;;5.60;81.76
48216;BME280;34005;48.844;10.098;2023-04-26T06:12:39;96784.75;;;5.67;82.01
48216;BME280;34005;48.844;10.098;2023-04-26T06:15:09;96786.78;;;5.73;82.23
48216;BME280;34005;48.844;10.098;2023-04-26T06:17:37;96792.69;;;5.84;83.15
48216;BME280;34005;48.844;10.098;2023-04-26T06:20:05;96788.94;;;5.96;82.66
48216;BME280;34005;48.844;10.098;2023-04-26T06:22:34;96786.59;;;6.03;81.22
48216;BME280;34005;48.844;10.098;2023-04-26T06:25:04;96782.81;;;6.15;82.33
48216;BME280;34005;48.844;10.098;2023-04-26T06:27:32;96785.38;;;6.33;82.73
48216;BME280;34005;48.844;10.098;2023-04-26T06:29:59;96792.31;;;6.50;82.72
48216;BME280;34005;48.844;10.098;2023-04-26T06:32:28;96787.22;;;6.67;82.46
48216;BME280;34005;48.844;10.098;2023-04-26T06:34:56;96787.34;;;6.83;82.04
48216;BME280;34005;48.844;10.098;2023-04-26T06:37:23;96790.47;;;6.95;80.71
48216;BME280;34005;48.844;10.098;2023-04-26T06:39:51;96795.03;;;7.01;78.19
48216;BME280;34005;48.844;10.098;2023-04-26T06:42:19;96795.75;;;7.11;79.01
48216;BME280;34005;48.844;10.098;2023-04-26T06:44:47;96799.22;;;7.28;79.34
48216;BME280;34005;48.844;10.098;2023-04-26T06:47:15;96797.31;;;7.38;78.14
48216;BME280;34005;48.844;10.098;2023-04-26T06:49:44;96804.63;;;7.43;75.34
48216;BME280;34005;48.844;10.098;2023-04-26T06:52:12;96798.19;;;7.55;74.05
48216;BME280;34005;48.844;10.098;2023-04-26T06:54:40;96799.34;;;7.69;75.15
48216;BME280;34005;48.844;10.098;2023-04-26T06:57:21;96805.88;;;7.81;72.85
48216;BME280;34005;48.844;10.098;2023-04-26T06:59:49;96807.50;;;7.91;71.14
48216;BME280;34005;48.844;10.098;2023-04-26T07:02:17;96807.19;;;8.02;70.37
48216;BME280;34005;48.844;10.098;2023-04-26T07:04:46;96800.06;;;8.12;69.04
48216;BME280;34005;48.844;10.098;2023-04-26T07:07:14;96797.31;;;8.22;68.53
48216;BME280;34005;48.844;10.098;2023-04-26T07:09:42;96801.38;;;8.33;67.65
48216;BME280;34005;48.844;10.098;2023-04-26T07:12:10;96791.31;;;8.46;67.61
48216;BME280;34005;48.844;10.098;2023-04-26T07:14:38;96800.78;;;8.55;66.84
48216;BME280;34005;48.844;10.098;2023-04-26T07:17:06;96793.75;;;8.72;65.84
48216;BME280;34005;48.844;10.098;2023-04-26T07:19:34;96790.31;;;8.88;65.16
48216;BME280;34005;48.844;10.098;2023-04-26T07:22:03;96789.28;;;9.05;64.04
48216;BME280;34005;48.844;10.098;2023-04-26T07:24:30;96792.19;;;9.19;63.93
48216;BME280;34005;48.844;10.098;2023-04-26T07:26:58;96791.16;;;9.28;62.94
48216;BME280;34005;48.844;10.098;2023-04-26T07:29:26;96788.84;;;9.33;62.45
48216;BME280;34005;48.844;10.098;2023-04-26T07:31:54;96786.09;;;9.35;61.59
48216;BME280;34005;48.844;10.098;2023-04-26T07:34:22;96789.63;;;9.42;61.57
48216;BME280;34005;48.844;10.098;2023-04-26T07:36:49;96781.91;;;9.57;61.15
48216;BME280;34005;48.844;10.098;2023-04-26T07:39:18;96785.13;;;9.67;60.45
48216;BME280;34005;48.844;10.098;2023-04-26T07:41:46;96780.50;;;9.77;60.25
48216;BME280;34005;48.844;10.098;2023-04-26T07:44:14;96781.56;;;9.91;60.26
48216;BME280;34005;48.844;10.098;2023-04-26T07:46:41;96783.09;;;10.08;59.96
48216;BME280;34005;48.844;10.098;2023-04-26T07:49:09;96777.28;;;10.21;63.08
48216;BME280;34005;48.844;10.098;2023-04-26T07:51:37;96772.97;;;10.37;62.42
48216;BME280;34005;48.844;10.098;2023-04-26T07:54:04;96780.19;;;10.49;63.83
48216;BME280;34005;48.844;10.098;2023-04-26T07:56:33;96777.41;;;10.66;61.87
48216;BME280;34005;48.844;10.098;2023-04-26T07:59:01;96777.69;;;10.71;57.80
48216;BME280;34005;48.844;10.098;2023-04-26T08:01:30;96776.06;;;10.70;59.22
48216;BME280;34005;48.844;10.098;2023-04-26T08:03:58;96779.41;;;10.79;60.62
48216;BME280;34005;48.844;10.098;2023-04-26T08:06:29;96779.06;;;10.97;56.65
48216;BME280;34005;48.844;10.098;2023-04-26T08:09:03;96775.91;;;11.16;55.85
48216;BME280;34005;48.844;10.098;2023-04-26T08:11:31;96779.41;;;11.38;57.38
48216;BME280;34005;48.844;10.098;2023-04-26T08:14:00;96785.59;;;11.52;53.16
48216;BME280;34005;48.844;10.098;2023-04-26T08:16:28;96784.84;;;11.73;55.81
48216;BME280;34005;48.844;10.098;2023-04-26T08:18:56;96782.63;;;11.91;49.90
48216;BME280;34005;48.844;10.098;2023-04-26T08:21:28;96785.72;;;12.16;54.17
48216;BME280;34005;48.844;10.098;2023-04-26T08:23:56;96785.31;;;12.41;49.02
48216;BME280;34005;48.844;10.098;2023-04-26T08:26:24;96783.25;;;12.58;52.27
48216;BME280;34005;48.844;10.098;2023-04-26T08:28:52;96778.25;;;12.63;49.39
48216;BME280;34005;48.844;10.098;2023-04-26T08:31:21;96779.50;;;12.67;47.83
48216;BME280;34005;48.844;10.098;2023-04-26T08:33:50;96782.59;;;12.77;53.68
48216;BME280;34005;48.844;10.098;2023-04-26T08:36:20;96780.50;;;12.94;47.05
48216;BME280;34005;48.844;10.098;2023-04-26T08:38:47;96777.34;;;13.06;47.79
48216;BME280;34005;48.844;10.098;2023-04-26T08:41:19;96776.97;;;13.15;44.15
48216;BME280;34005;48.844;10.098;2023-04-26T08:43:48;96774.19;;;13.24;44.47
48216;BME280;34005;48.844;10.098;2023-04-26T08:46:18;96792.03;;;13.35;45.16
48216;BME280;34005;48.844;10.098;2023-04-26T08:48:52;96787.44;;;13.50;43.47
48216;BME280;34005;48.844;10.098;2023-04-26T08:51:22;96790.13;;;13.64;45.16
48216;BME280;34005;48.844;10.098;2023-04-26T08:53:50;96785.91;;;13.63;42.98
48216;BME280;34005;48.844;10.098;2023-04-26T08:56:21;96777.97;;;13.43;43.12
48216;BME280;34005;48.844;10.098;2023-04-26T08:58:49;96781.03;;;13.25;42.63
48216;BME280;34005;48.844;10.098;2023-04-26T09:01:18;96780.00;;;13.12;48.52
48216;BME280;34005;48.844;10.098;2023-04-26T09:03:49;96785.44;;;13.17;48.86
48216;BME280;34005;48.844;10.098;2023-04-26T09:06:18;96792.09;;;13.20;46.28
48216;BME280;34005;48.844;10.098;2023-04-26T09:08:46;96789.31;;;13.22;43.96
48216;BME280;34005;48.844;10.098;2023-04-26T09:11:14;96792.13;;;13.27;47.91
48216;BME280;34005;48.844;10.098;2023-04-26T09:13:42;96786.25;;;13.53;47.60
48216;BME280;34005;48.844;10.098;2023-04-26T09:16:09;96784.06;;;13.63;44.95
48216;BME280;34005;48.844;10.098;2023-04-26T09:18:46;96792.16;;;13.75;42.25
48216;BME280;34005;48.844;10.098;2023-04-26T09:21:17;96780.94;;;13.94;42.60
48216;BME280;34005;48.844;10.098;2023-04-26T09:23:58;96783.78;;;13.99;41.29
48216;BME280;34005;48.844;10.098;2023-04-26T09:26:27;96785.41;;;14.07;43.46
48216;BME280;34005;48.844;10.098;2023-04-26T09:29:10;96782.16;;;13.98;41.10
48216;BME280;34005;48.844;10.098;2023-04-26T09:31:40;96782.94;;;13.92;44.92
48216;BME280;34005;48.844;10.098;2023-04-26T09:34:09;96782.16;;;13.98;42.56
48216;BME280;34005;48.844;10.098;2023-04-26T09:36:52;96778.91;;;13.96;45.04
48216;BME280;34005;48.844;10.098;2023-04-26T09:39:32;96771.50;;;14.07;43.83
48216;BME280;34005;48.844;10.098;2023-04-26T09:42:00;96769.06;;;14.25;46.65
48216;BME280;34005;48.844;10.098;2023-04-26T09:44:29;96771.13;;;14.50;42.47
48216;BME280;34005;48.844;10.098;2023-04-26T09:46:59;96770.94;;;14.65;40.25
48216;BME280;34005;48.844;10.098;2023-04-26T09:49:27;96770.91;;;14.71;40.25
48216;BME280;34005;48.844;10.098;2023-04-26T09:52:04;96772.56;;;14.59;40.33
48216;BME280;34005;48.844;10.098;2023-04-26T09:54:43;96770.09;;;14.44;45.06
48216;BME280;34005;48.844;10.098;2023-04-26T09:57:13;96772.91;;;14.29;40.62
48216;BME280;34005;48.844;10.098;2023-04-26T09:59:42;96763.63;;;14.20;40.09
48216;BME280;34005;48.844;10.098;2023-04-26T10:02:19;96766.25;;;14.20;38.87
48216;BME280;34005;48.844;10.098;2023-04-26T10:04:49;96762.84;;;14.33;39.41
48216;BME280;34005;48.844;10.098;2023-04-26T10:07:22;96745.06;;;14.35;38.46
48216;BME280;34005;48.844;10.098;2023-04-26T10:09:50;96748.31;;;14.43;40.30
48216;BME280;34005;48.844;10.098;2023-04-26T10:12:18;96754.16;;;14.52;39.07
48216;BME280;34005;48.844;10.098;2023-04-26T10:14:47;96749.53;;;14.48;39.64
48216;BME280;34005;48.844;10.098;2023-04-26T10:17:15;96748.69;;;14.40;40.78
48216;BME280;34005;48.844;10.098;2023-04-26T10:19:47;96748.69;;;14.40;40.13
48216;BME280;34005;48.844;10.098;2023-04-26T10:22:22;96747.50;;;14.50;43.44
48216;BME280;34005;48.844;10.098;2023-04-26T10:24:52;96748.06;;;14.52;45.62
48216;BME280;34005;48.844;10.098;2023-04-26T10:27:46;96742.47;;;14.61;46.04
48216;BME280;34005;48.844;10.098;2023-04-26T10:30:14;96739.81;;;14.81;40.91
48216;BME280;34005;48.844;10.098;2023-04-26T10:33:10;96733.69;;;15.08;39.59
48216;BME280;34005;48.844;10.098;2023-04-26T10:36:02;96733.25;;;15.17;38.44
48216;BME280;34005;48.844;10.098;2023-04-26T10:38:31;96730.44;;;15.12;38.55
48216;BME280;34005;48.844;10.098;2023-04-26T10:41:31;96729.63;;;15.12;38.00
48216;BME280;34005;48.844;10.098;2023-04-26T10:44:36;96728.19;;;15.22;36.30
48216;BME280;34005;48.844;10.098;2023-04-26T10:47:05;96727.97;;;15.17;38.98
48216;BME280;34005;48.844;10.098;2023-04-26T10:49:43;96722.34;;;15.20;39.21
48216;BME280;34005;48.844;10.098;2023-04-26T10:52:14;96725.94;;;15.33;40.23
48216;BME280;34005;48.844;10.098;2023-04-26T10:55:01;96726.91;;;15.38;39.09
48216;BME280;34005;48.844;10.098;2023-04-26T10:57:48;96731.56;;;15.36;36.53
48216;BME280;34005;48.844;10.098;2023-04-26T11:00:25;96725.09;;;15.32;37.48
48216;BME280;34005;48.844;10.098;2023-04-26T11:03:05;96721.06;;;15.36;36.57
48216;BME280;34005;48.844;10.098;2023-04-26T11:05:50;96719.78;;;15.45;36.66
48216;BME280;34005;48.844;10.098;2023-04-26T11:08:23;96720.13;;;15.62;37.10
48216;BME280;34005;48.844;10.098;2023-04-26T11:11:03;96716.00;;;15.80;35.76
48216;BME280;34005;48.844;10.098;2023-04-26T11:13:33;96715.91;;;15.93;39.64
48216;BME280;34005;48.844;10.098;2023-04-26T11:16:03;96719.84;;;16.09;36.82
48216;BME280;34005;48.844;10.098;2023-04-26T11:18:32;96727.69;;;16.16;40.52
48216;BME280;34005;48.844;10.098;2023-04-26T11:21:00;96716.91;;;16.24;37.71
48216;BME280;34005;48.844;10.098;2023-04-26T11:23:28;96713.53;;;16.17;34.78
48216;BME280;34005;48.844;10.098;2023-04-26T11:25:58;96719.50;;;16.05;34.57
48216;BME280;34005;48.844;10.098;2023-04-26T11:28:28;96716.31;;;15.97;38.06
48216;BME280;34005;48.844;10.098;2023-04-26T11:31:00;96710.84;;;15.92;38.83
48216;BME280;34005;48.844;10.098;2023-04-26T11:33:28;96705.88;;;15.83;39.33
48216;BME280;34005;48.844;10.098;2023-04-26T11:35:57;96706.34;;;15.67;37.45
48216;BME280;34005;48.844;10.098;2023-04-26T11:38:25;96704.25;;;15.44;36.16
48216;BME280;34005;48.844;10.098;2023-04-26T11:40:55;96701.91;;;15.22;37.46
48216;BME280;34005;48.844;10.098;2023-04-26T11:43:33;96699.34;;;15.09;35.44
48216;BME280;34005;48.844;10.098;2023-04-26T11:46:02;96700.34;;;15.08;40.63
48216;BME280;34005;48.844;10.098;2023-04-26T11:48:30;96698.50;;;15.15;37.56
48216;BME280;34005;48.844;10.098;2023-04-26T11:51:00;96691.78;;;15.26;37.28
48216;BME280;34005;48.844;10.098;2023-04-26T11:53:34;96694.19;;;15.28;35.57
48216;BME280;34005;48.844;10.098;2023-04-26T11:56:03;96693.59;;;15.25;37.01
48216;BME280;34005;48.844;10.098;2023-04-26T11:58:32;96687.94;;;15.29;35.35
48216;BME280;34005;48.844;10.098;2023-04-26T12:01:00;96675.72;;;15.41;37.49
48216;BME280;34005;48.844;10.098;2023-04-26T12:03:29;96684.63;;;15.47;35.40
48216;BME280;34005;48.844;10.098;2023-04-26T12:05:57;96683.63;;;15.41;35.25
48216;BME280;34005;48.844;10.098;2023-04-26T12:08:26;96684.88;;;15.32;34.87
48216;BME280;34005;48.844;10.098;2023-04-26T12:10:55;96680.34;;;15.07;35.10
48216;BME280;34005;48.844;10.098;2023-04-26T12:13:25;96679.78;;;14.92;38.71
48216;BME280;34005;48.844;10.098;2023-04-26T12:15:54;96677.16;;;14.92;36.07
48216;BME280;34005;48.844;10.098;2023-04-26T12:18:28;96676.75;;;14.95;40.24
48216;BME280;34005;48.844;10.098;2023-04-26T12:20:57;96674.88;;;15.02;37.68
48216;BME280;34005;48.844;10.098;2023-04-26T12:23:25;96664.97;;;15.04;37.96
48216;BME280;34005;48.844;10.098;2023-04-26T12:25:54;96661.34;;;15.05;34.96
48216;BME280;34005;48.844;10.098;2023-04-26T12:28:22;96659.72;;;15.04;35.21
48216;BME280;34005;48.844;10.098;2023-04-26T12:30:51;96657.34;;;14.96;35.94
48216;BME280;34005;48.844;10.098;2023-04-26T12:33:20;96663.63;;;14.88;36.57
48216;BME280;34005;48.844;10.098;2023-04-26T12:35:49;96666.25;;;14.88;37.71
48216;BME280;34005;48.844;10.098;2023-04-26T12:38:17;96654.16;;;14.87;35.46
48216;BME280;34005;48.844;10.098;2023-04-26T12:40:45;96655.94;;;14.87;35.32
48216;BME280;34005;48.844;10.098;2023-04-26T12:43:13;96648.03;;;14.93;34.92
48216;BME280;34005;48.844;10.098;2023-04-26T12:45:41;96647.19;;;15.06;36.72
48216;BME280;34005;48.844;10.098;2023-04-26T12:48:08;96644.75;;;15.11;37.47
48216;BME280;34005;48.844;10.098;2023-04-26T12:50:38;96648.13;;;15.25;35.70
48216;BME280;34005;48.844;10.098;2023-04-26T12:53:06;96648.47;;;15.35;35.16
48216;BME280;34005;48.844;10.098;2023-04-26T12:55:36;96651.25;;;15.47;39.03
48216;BME280;34005;48.844;10.098;2023-04-26T12:58:04;96645.75;;;15.55;36.30
48216;BME280;34005;48.844;10.098;2023-04-26T13:00:31;96646.09;;;15.59;34.89
48216;BME280;34005;48.844;10.098;2023-04-26T13:02:59;96647.53;;;15.61;37.70
48216;BME280;34005;48.844;10.098;2023-04-26T13:05:27;96651.34;;;15.65;39.70
48216;BME280;34005;48.844;10.098;2023-04-26T13:07:57;96642.63;;;15.72;39.90